Time;durP1;ratioP1;P1;durP2;ratioP2;P2;SDS_P1;SDS_P2;PMS_P1;PMS_P2;Temp;Humidity;BMP_temperature;BMP_pressure;BME280_temperature;BME280_humidity;BME280_pressure;Samples;Min_cycle;Max_cycle;Signal;HPM_P1;HPM_P2
2021/12/06 00:01:31;;;;;;;28.38;17.00;;;2.10;99.90;;;;;;5112401;28;20050;-64
2021/12/06 00:04:05;;;;;;;25.83;15.52;;;2.00;99.90;;;;;;5129019;27;20104;-65
2021/12/06 00:06:33;;;;;;;30.83;17.42;;;2.00;99.90;;;;;;5111998;28;20087;-65
2021/12/06 00:09:01;;;;;;;27.25;16.20;;;2.00;99.90;;;;;;5094865;28;20044;-64
2021/12/06 00:11:27;;;;;;;27.98;16.63;;;2.00;99.90;;;;;;5113205;28;20130;-66
2021/12/06 00:13:53;;;;;;;32.95;18.85;;;2.00;99.90;;;;;;5111514;28;20126;-64
2021/12/06 00:16:22;;;;;;;26.48;16.17;;;2.00;99.90;;;;;;5094972;28;20047;-66
2021/12/06 00:18:49;;;;;;;27.55;16.83;;;2.00;99.90;;;;;;5112581;28;20069;-65
2021/12/06 00:21:15;;;;;;;30.50;17.30;;;2.00;99.90;;;;;;5113081;28;20048;-64
2021/12/06 00:23:41;;;;;;;31.00;18.25;;;2.00;99.90;;;;;;5111295;28;20431;-65
2021/12/06 00:26:10;;;;;;;27.33;16.63;;;2.00;99.90;;;;;;5112835;28;20539;-64
2021/12/06 00:28:37;;;;;;;29.15;16.85;;;2.00;99.90;;;;;;5111603;28;20087;-71
2021/12/06 00:31:04;;;;;;;30.92;17.45;;;2.00;99.90;;;;;;5093915;28;20549;-65
2021/12/06 00:33:30;;;;;;;31.05;16.10;;;2.00;99.90;;;;;;5111813;28;20044;-64
2021/12/06 00:36:02;;;;;;;26.83;17.30;;;2.00;99.90;;;;;;5111350;28;20048;-64
2021/12/06 00:38:30;;;;;;;32.70;18.48;;;2.00;99.90;;;;;;5095187;28;20464;-64
2021/12/06 00:40:55;;;;;;;30.42;17.45;;;2.00;99.90;;;;;;5110953;28;20044;-64
2021/12/06 00:43:21;;;;;;;30.40;16.85;;;2.00;99.90;;;;;;5112585;28;20062;-65
2021/12/06 00:45:47;;;;;;;29.80;18.70;;;2.00;99.90;;;;;;5111063;28;20051;-65
2021/12/06 00:48:13;;;;;;;32.75;17.42;;;2.00;99.90;;;;;;5112566;28;20044;-71
2021/12/06 00:50:41;;;;;;;29.63;17.60;;;2.00;99.90;;;;;;5111525;28;20048;-67
2021/12/06 00:53:08;;;;;;;29.90;17.42;;;2.00;99.90;;;;;;5112459;28;20055;-66
2021/12/06 00:55:35;;;;;;;31.20;16.75;;;2.00;99.90;;;;;;5112115;28;20500;-64
2021/12/06 00:58:01;;;;;;;27.95;16.27;;;2.00;99.90;;;;;;5110270;28;20070;-65
2021/12/06 01:00:35;;;;;;;28.80;17.17;;;2.00;99.90;;;;;;5112181;28;20055;-64
2021/12/06 01:03:11;;;;;;;28.33;16.77;;;2.00;99.90;;;;;;5110805;28;20090;-64
2021/12/06 01:05:38;;;;;;;28.33;16.63;;;2.00;99.90;;;;;;5110904;28;20087;-64
2021/12/06 01:08:04;;;;;;;31.05;17.30;;;2.00;99.90;;;;;;5111494;28;20111;-66
2021/12/06 01:10:32;;;;;;;27.02;16.40;;;2.00;99.90;;;;;;5127942;27;20105;-67
2021/12/06 01:12:58;;;;;;;27.85;16.25;;;2.00;99.90;;;;;;5127471;27;20391;-64
2021/12/06 01:15:25;;;;;;;28.40;16.38;;;2.00;99.90;;;;;;5112018;28;20040;-68
2021/12/06 01:17:51;;;;;;;28.27;17.33;;;2.10;99.90;;;;;;5110028;28;20071;-65
2021/12/06 01:20:19;;;;;;;28.25;16.83;;;2.10;99.90;;;;;;5111873;28;20068;-65
2021/12/06 01:23:01;;;;;;;29.83;17.27;;;2.10;99.90;;;;;;5111445;28;20088;-72
2021/12/06 01:25:39;;;;;;;31.48;18.27;;;2.10;99.90;;;;;;5127532;27;20054;-65
2021/12/06 01:41:17;;;;;;;27.35;15.63;;;2.10;99.90;;;;;;5113172;28;20077;-65
2021/12/06 01:44:23;;;;;;;32.42;16.52;;;2.00;99.90;;;;;;5117242;28;20073;-66
2021/12/06 01:46:52;;;;;;;29.83;16.02;;;2.20;99.90;;;;;;5038378;28;20095;-72
2021/12/06 01:49:20;;;;;;;33.15;18.92;;;2.00;99.90;;;;;;5038338;28;20053;-65
2021/12/06 01:51:49;;;;;;;30.38;18.67;;;2.00;99.90;;;;;;5087426;27;20055;-64
2021/12/06 01:54:16;;;;;;;34.55;18.08;;;2.00;99.90;;;;;;5117115;28;20058;-65
2021/12/06 01:56:43;;;;;;;31.60;18.77;;;2.00;99.90;;;;;;5134470;27;20051;-64
2021/12/06 01:59:09;;;;;;;32.70;18.92;;;2.00;99.90;;;;;;5117533;27;20055;-66
2021/12/06 02:01:35;;;;;;;32.80;16.98;;;2.00;99.90;;;;;;5117170;28;20048;-66
2021/12/06 02:04:01;;;;;;;32.35;18.90;;;2.00;99.90;;;;;;5118005;27;20054;-65
2021/12/06 02:06:27;;;;;;;30.05;16.38;;;2.10;99.90;;;;;;5118484;27;20127;-66
2021/12/06 02:08:53;;;;;;;32.70;17.58;;;2.00;99.90;;;;;;5116845;28;20446;-68
2021/12/06 02:11:22;;;;;;;34.83;18.77;;;2.00;99.90;;;;;;5082947;28;20055;-65
2021/12/06 02:14:41;;;;;;;36.25;19.75;;;2.00;99.90;;;;;;5117177;28;20048;-64
2021/12/06 02:16:55;;;;;;;37.90;19.67;;;2.00;99.90;;;;;;5106078;28;20477;-64
2021/12/06 02:19:29;;;;;;;33.90;18.13;;;2.00;99.90;;;;;;5117109;28;20472;-65
2021/12/06 02:21:54;;;;;;;32.08;18.00;;;2.30;99.90;;;;;;5133728;27;20044;-69
2021/12/06 02:24:20;;;;;;;30.63;17.38;;;2.00;99.90;;;;;;5118064;28;20047;-68
2021/12/06 02:26:46;;;;;;;35.53;19.77;;;2.00;99.90;;;;;;5116929;28;20047;-65
2021/12/06 02:29:12;;;;;;;32.33;17.25;;;2.00;99.90;;;;;;5133501;27;20678;-65
2021/12/06 02:31:38;;;;;;;39.38;19.55;;;2.00;99.90;;;;;;5117176;28;20412;-64
2021/12/06 02:34:04;;;;;;;35.35;20.05;;;2.00;99.90;;;;;;5116562;28;20047;-64
2021/12/06 02:36:31;;;;;;;34.92;17.05;;;1.90;99.90;;;;;;5118031;27;20058;-64
2021/12/06 02:38:57;;;;;;;39.35;19.65;;;2.00;99.90;;;;;;5117352;27;20048;-68
2021/12/06 02:41:24;;;;;;;37.95;20.83;;;2.00;99.90;;;;;;5116721;28;20043;-65
2021/12/06 02:43:52;;;;;;;39.13;20.48;;;1.90;99.90;;;;;;5100141;28;20550;-65
2021/12/06 02:46:18;;;;;;;36.22;17.05;;;1.90;99.90;;;;;;5116635;28;20055;-65
2021/12/06 02:48:44;;;;;;;34.90;17.58;;;1.90;99.90;;;;;;5116950;28;20078;-66
2021/12/06 02:51:14;;;;;;;41.20;21.25;;;1.90;99.90;;;;;;5117417;27;20050;-65
2021/12/06 02:53:41;;;;;;;38.85;19.80;;;1.90;99.90;;;;;;5115150;27;20126;-66
2021/12/06 02:56:28;;;;;;;39.00;18.52;;;1.90;99.90;;;;;;5114326;28;20056;-65
2021/12/06 02:58:56;;;;;;;33.42;17.88;;;1.90;99.90;;;;;;5096374;28;20093;-64
2021/12/06 03:01:31;;;;;;;33.60;17.20;;;1.90;99.90;;;;;;5112867;28;20126;-65
2021/12/06 03:03:58;;;;;;;37.88;18.83;;;1.90;99.90;;;;;;5113356;28;20069;-71
2021/12/06 03:06:25;;;;;;;38.63;19.05;;;1.90;99.90;;;;;;5113399;28;20136;-65
2021/12/06 03:09:19;;;;;;;35.58;17.17;;;1.90;99.90;;;;;;5129944;27;20070;-65
2021/12/06 03:11:48;;;;;;;37.65;18.65;;;1.90;99.90;;;;;;5111752;28;20126;-64
2021/12/06 03:14:20;;;;;;;36.58;18.77;;;1.90;99.90;;;;;;5113813;28;20044;-66
2021/12/06 03:16:47;;;;;;;39.53;20.42;;;1.90;99.90;;;;;;5130259;27;20095;-64
2021/12/06 03:19:13;;;;;;;39.20;19.13;;;1.90;99.90;;;;;;5129721;27;20043;-64
2021/12/06 03:21:39;;;;;;;39.47;18.95;;;1.90;99.90;;;;;;5113100;28;20125;-64
2021/12/06 03:24:06;;;;;;;47.88;22.58;;;1.90;99.90;;;;;;5113771;28;20694;-64
2021/12/06 03:26:34;;;;;;;39.55;19.65;;;1.90;99.90;;;;;;5095971;28;20047;-66
2021/12/06 03:29:00;;;;;;;42.30;19.75;;;1.90;99.90;;;;;;5113191;28;20100;-64
2021/12/06 03:31:27;;;;;;;43.85;19.42;;;1.90;99.90;;;;;;5112568;28;20073;-64
2021/12/06 03:33:55;;;;;;;41.40;19.85;;;1.80;99.90;;;;;;5113671;28;20047;-66
2021/12/06 03:36:23;;;;;;;43.13;21.00;;;2.00;99.90;;;;;;5113379;28;20043;-64
2021/12/06 03:38:50;;;;;;;43.92;21.75;;;1.90;99.90;;;;;;5112495;28;20168;-64
2021/12/06 03:41:17;;;;;;;47.45;21.42;;;1.90;99.90;;;;;;5112329;28;20411;-65
2021/12/06 03:43:43;;;;;;;40.30;19.05;;;2.00;99.90;;;;;;5113821;28;20051;-65
2021/12/06 03:46:12;;;;;;;43.22;21.13;;;1.90;99.90;;;;;;5113479;28;20043;-65
2021/12/06 03:48:38;;;;;;;44.35;21.08;;;2.10;99.90;;;;;;5112278;28;20559;-65
2021/12/06 03:51:04;;;;;;;44.72;21.83;;;1.90;99.90;;;;;;5113504;28;20130;-74
2021/12/06 03:53:31;;;;;;;45.70;22.88;;;1.90;99.90;;;;;;5112427;28;20079;-66
2021/12/06 03:55:58;;;;;;;45.25;22.23;;;1.90;99.90;;;;;;5112660;28;20428;-64
2021/12/06 03:58:24;;;;;;;43.83;20.83;;;1.90;99.90;;;;;;5112981;28;20621;-65
2021/12/06 04:00:51;;;;;;;41.95;20.50;;;2.00;99.90;;;;;;5095222;28;20051;-65
2021/12/06 04:03:26;;;;;;;40.50;20.23;;;2.30;99.90;;;;;;5094748;28;20061;-65
2021/12/06 04:05:52;;;;;;;44.67;22.15;;;2.00;99.90;;;;;;5113339;28;20043;-64
2021/12/06 04:08:18;;;;;;;46.35;21.42;;;2.00;99.90;;;;;;5112871;28;20100;-65
2021/12/06 04:10:43;;;;;;;42.80;21.55;;;2.00;99.90;;;;;;5113458;28;20051;-65
2021/12/06 04:13:10;;;;;;;40.35;20.25;;;2.00;99.90;;;;;;5111721;28;20044;-70
2021/12/06 04:15:38;;;;;;;40.88;19.05;;;2.00;99.90;;;;;;5113159;28;20096;-64
2021/12/06 04:18:04;;;;;;;38.45;19.70;;;2.00;99.90;;;;;;5111973;28;20054;-65
2021/12/06 04:20:30;;;;;;;41.08;20.05;;;2.10;99.90;;;;;;5094699;28;20393;-65
2021/12/06 04:22:57;;;;;;;40.17;20.73;;;2.10;99.90;;;;;;5094743;28;20059;-65
2021/12/06 04:25:23;;;;;;;41.78;19.17;;;2.00;99.90;;;;;;5111254;28;20156;-65
2021/12/06 04:27:55;;;;;;;42.78;20.45;;;2.10;99.90;;;;;;5112000;28;20154;-67
2021/12/06 04:30:24;;;;;;;45.90;22.98;;;2.10;99.90;;;;;;5111421;28;20130;-66
2021/12/06 04:32:52;;;;;;;45.05;22.38;;;2.30;99.90;;;;;;5112816;28;20053;-64
2021/12/06 04:35:18;;;;;;;43.30;20.55;;;2.10;99.90;;;;;;5110846;28;20047;-64
2021/12/06 04:37:45;;;;;;;44.55;21.35;;;2.10;99.90;;;;;;5094648;28;20412;-65
2021/12/06 04:40:12;;;;;;;43.40;20.23;;;2.10;99.90;;;;;;5111098;28;20479;-70
2021/12/06 04:42:39;;;;;;;46.47;20.77;;;2.10;99.90;;;;;;5128280;27;20477;-64
2021/12/06 04:45:05;;;;;;;45.03;21.88;;;2.10;99.90;;;;;;5111230;28;20040;-64
2021/12/06 04:47:31;;;;;;;42.15;21.63;;;2.10;99.90;;;;;;5112057;28;20675;-65
2021/12/06 04:49:57;;;;;;;39.30;20.05;;;2.10;99.90;;;;;;5111363;28;20058;-68
2021/12/06 04:52:24;;;;;;;42.53;19.33;;;2.10;99.90;;;;;;5111324;28;20524;-64
2021/12/06 04:54:53;;;;;;;37.70;20.17;;;2.10;99.90;;;;;;5094602;28;20083;-65
2021/12/06 04:57:27;;;;;;;43.70;21.63;;;2.10;99.90;;;;;;5111713;28;20047;-67
2021/12/06 05:00:03;;;;;;;38.00;18.90;;;2.10;99.90;;;;;;5112026;28;20546;-65
2021/12/06 05:02:34;;;;;;;47.85;21.52;;;2.20;99.90;;;;;;5111853;28;20062;-64
2021/12/06 05:05:06;;;;;;;39.40;17.17;;;2.10;99.90;;;;;;5110967;28;20093;-65
2021/12/06 05:07:37;;;;;;;46.13;20.15;;;2.10;99.90;;;;;;5111868;28;20452;-65
2021/12/06 05:10:06;;;;;;;39.72;19.15;;;2.30;99.90;;;;;;5112137;28;20122;-66
2021/12/06 05:12:32;;;;;;;42.90;19.65;;;2.10;99.90;;;;;;5111456;28;20456;-67
2021/12/06 05:14:59;;;;;;;42.35;19.67;;;2.10;99.90;;;;;;5111133;28;20083;-65
2021/12/06 05:17:25;;;;;;;43.58;20.20;;;2.10;99.90;;;;;;5093190;28;20040;-65
2021/12/06 05:19:51;;;;;;;42.88;19.17;;;2.10;99.90;;;;;;5110565;28;20134;-64
2021/12/06 05:22:18;;;;;;;42.90;21.05;;;2.20;99.90;;;;;;5110456;28;20155;-72
2021/12/06 05:24:45;;;;;;;49.72;23.02;;;2.10;99.90;;;;;;5111127;28;20092;-65
2021/12/06 05:27:11;;;;;;;45.00;21.08;;;2.20;99.90;;;;;;5112044;28;20408;-65
2021/12/06 05:29:37;;;;;;;48.45;24.30;;;2.10;99.90;;;;;;5110093;28;20043;-65
2021/12/06 05:32:03;;;;;;;43.95;20.00;;;2.10;99.90;;;;;;5110364;28;20476;-65
2021/12/06 05:34:43;;;;;;;41.95;19.75;;;2.10;99.90;;;;;;5111238;28;20047;-64
2021/12/06 05:37:12;;;;;;;44.65;20.90;;;2.10;99.90;;;;;;5110811;28;20040;-64
2021/12/06 05:39:38;;;;;;;34.88;17.83;;;2.10;99.90;;;;;;5110233;28;20117;-64
2021/12/06 05:42:10;;;;;;;42.97;19.92;;;2.20;99.90;;;;;;5111744;28;20043;-65
2021/12/06 05:44:37;;;;;;;46.08;21.25;;;2.20;99.90;;;;;;5110173;28;20050;-64
2021/12/06 05:47:03;;;;;;;44.95;21.48;;;2.10;99.90;;;;;;5111766;28;20392;-65
2021/12/06 05:49:29;;;;;;;47.38;21.98;;;2.20;99.90;;;;;;5111181;28;20050;-64
2021/12/06 05:51:56;;;;;;;53.45;23.73;;;2.10;99.90;;;;;;5110630;28;20431;-64
2021/12/06 05:54:22;;;;;;;44.40;20.20;;;2.10;99.90;;;;;;5110742;28;20579;-65
2021/12/06 05:56:48;;;;;;;41.65;18.92;;;2.10;99.90;;;;;;5127444;28;20052;-64
2021/12/06 05:59:15;;;;;;;43.60;17.83;;;2.10;99.90;;;;;;5111471;28;20077;-64
2021/12/06 06:01:41;;;;;;;48.38;20.50;;;2.10;99.90;;;;;;5111170;28;20051;-65
2021/12/06 06:04:07;;;;;;;38.58;18.35;;;2.10;99.90;;;;;;5111373;28;20055;-65
2021/12/06 06:06:35;;;;;;;44.05;21.23;;;2.40;99.90;;;;;;5111323;28;20058;-63
2021/12/06 06:09:01;;;;;;;41.80;20.08;;;2.10;99.90;;;;;;5111429;28;20423;-64
2021/12/06 06:11:27;;;;;;;43.47;20.92;;;2.10;99.90;;;;;;5110968;28;20048;-65
2021/12/06 06:13:53;;;;;;;44.08;20.08;;;2.20;99.90;;;;;;5111509;28;20075;-65
2021/12/06 06:16:21;;;;;;;42.08;17.10;;;2.10;99.90;;;;;;5110278;28;20139;-64
2021/12/06 06:18:49;;;;;;;44.22;20.38;;;2.00;99.90;;;;;;5111041;28;20052;-66
2021/12/06 06:21:15;;;;;;;46.85;20.65;;;2.10;99.90;;;;;;5110337;28;20115;-65
2021/12/06 06:23:41;;;;;;;41.30;19.60;;;2.00;99.90;;;;;;5111119;28;20131;-65
2021/12/06 06:26:07;;;;;;;43.17;19.65;;;2.00;99.90;;;;;;5111248;28;20122;-65
2021/12/06 06:28:33;;;;;;;36.08;18.25;;;2.10;99.90;;;;;;5112258;28;20235;-64
2021/12/06 06:30:59;;;;;;;47.28;20.58;;;2.00;99.90;;;;;;5114244;28;20393;-65
2021/12/06 06:33:25;;;;;;;39.95;18.88;;;2.10;99.90;;;;;;5114076;28;20185;-72
2021/12/06 06:35:51;;;;;;;43.60;19.77;;;2.10;99.90;;;;;;5114996;27;20126;-65
2021/12/06 06:38:17;;;;;;;45.70;20.52;;;2.10;99.90;;;;;;5113624;28;20048;-68
2021/12/06 06:40:44;;;;;;;36.85;17.50;;;2.10;99.90;;;;;;5113893;28;20413;-67
2021/12/06 06:43:10;;;;;;;44.20;20.52;;;2.10;99.90;;;;;;5114872;28;20048;-64
2021/12/06 06:45:36;;;;;;;43.50;16.88;;;2.10;99.90;;;;;;5113662;28;20397;-65
2021/12/06 06:48:03;;;;;;;41.28;17.10;;;2.10;99.90;;;;;;5096956;28;20043;-66
2021/12/06 06:50:29;;;;;;;45.55;20.27;;;2.10;99.90;;;;;;5114475;28;20447;-65
2021/12/06 06:52:55;;;;;;;42.80;19.52;;;2.10;99.90;;;;;;5114868;28;20055;-65
2021/12/06 06:55:21;;;;;;;47.25;21.67;;;2.10;99.90;;;;;;5114793;28;20048;-66
2021/12/06 06:57:47;;;;;;;35.60;16.70;;;2.10;99.90;;;;;;5113930;28;20131;-65
2021/12/06 07:00:18;;;;;;;37.50;16.13;;;2.10;99.90;;;;;;5096698;28;20131;-64
2021/12/06 07:02:44;;;;;;;43.05;18.27;;;2.10;99.90;;;;;;5114523;28;20134;-65
2021/12/06 07:05:10;;;;;;;29.52;14.35;;;2.00;99.90;;;;;;5096373;28;20051;-66
2021/12/06 07:07:37;;;;;;;42.35;19.35;;;2.10;99.90;;;;;;5114270;28;20434;-65
2021/12/06 07:10:05;;;;;;;45.97;19.45;;;2.10;99.90;;;;;;5113191;28;20048;-65
2021/12/06 07:12:34;;;;;;;38.85;15.95;;;2.10;99.90;;;;;;5114053;28;20043;-72
2021/12/06 07:14:59;;;;;;;38.78;16.63;;;2.10;99.90;;;;;;5112985;28;20051;-65
2021/12/06 07:17:25;;;;;;;43.30;19.80;;;2.10;99.90;;;;;;5096388;28;20127;-67
2021/12/06 07:19:51;;;;;;;31.95;15.45;;;2.10;99.90;;;;;;5129979;27;20047;-65
2021/12/06 07:22:17;;;;;;;35.75;18.35;;;2.10;99.90;;;;;;5114373;28;20052;-65
2021/12/06 07:24:43;;;;;;;39.78;18.52;;;2.10;99.90;;;;;;5112390;28;20079;-64
2021/12/06 07:27:09;;;;;;;44.47;21.10;;;2.10;99.90;;;;;;5113175;28;20058;-65
2021/12/06 07:29:36;;;;;;;39.58;17.42;;;2.00;99.90;;;;;;5112715;28;20485;-64
2021/12/06 07:32:05;;;;;;;36.38;17.25;;;2.20;99.90;;;;;;5114291;28;20052;-66
2021/12/06 07:34:30;;;;;;;38.15;15.75;;;2.00;99.90;;;;;;5095944;28;20485;-66
2021/12/06 07:36:56;;;;;;;38.85;17.25;;;2.10;99.90;;;;;;5112950;28;20105;-66
2021/12/06 07:39:22;;;;;;;41.40;18.58;;;2.10;99.90;;;;;;5112106;28;20047;-65
2021/12/06 07:41:48;;;;;;;50.33;21.60;;;2.10;99.90;;;;;;5095202;28;20052;-67
2021/12/06 07:44:14;;;;;;;51.80;22.23;;;2.10;99.90;;;;;;5112343;28;20104;-66
2021/12/06 07:46:40;;;;;;;49.83;20.70;;;2.00;99.90;;;;;;5112981;28;20043;-64
2021/12/06 07:49:06;;;;;;;42.15;18.83;;;2.00;99.90;;;;;;5095029;28;20051;-63
2021/12/06 07:51:31;;;;;;;38.90;17.15;;;2.10;99.90;;;;;;5112168;28;20043;-64
2021/12/06 07:53:58;;;;;;;37.20;16.40;;;2.10;99.90;;;;;;5112401;28;20525;-66
2021/12/06 07:56:24;;;;;;;40.60;17.70;;;2.10;99.90;;;;;;5113093;28;20044;-64
2021/12/06 07:58:52;;;;;;;47.00;18.77;;;2.10;99.90;;;;;;5094197;28;20060;-64
2021/12/06 08:01:18;;;;;;;46.78;19.77;;;2.10;99.90;;;;;;5112395;28;20066;-64
2021/12/06 08:03:44;;;;;;;46.72;19.73;;;2.10;99.90;;;;;;5128102;27;20485;-64
2021/12/06 08:06:10;;;;;;;50.72;19.45;;;2.10;99.90;;;;;;5129243;27;20187;-64
2021/12/06 08:08:38;;;;;;;40.78;18.55;;;2.10;99.90;;;;;;5112260;28;20494;-71
2021/12/06 08:11:12;;;;;;;39.30;18.63;;;2.10;99.90;;;;;;5111842;28;20052;-63
2021/12/06 08:13:43;;;;;;;47.53;21.13;;;2.10;99.90;;;;;;5112445;28;20094;-70
2021/12/06 08:16:13;;;;;;;41.35;19.20;;;2.10;99.90;;;;;;5111379;28;20047;-64
2021/12/06 08:18:39;;;;;;;42.35;18.17;;;2.10;99.90;;;;;;5110847;28;20083;-69
2021/12/06 08:21:05;;;;;;;54.00;22.58;;;2.10;99.90;;;;;;5111589;28;20070;-65
2021/12/06 08:23:31;;;;;;;53.45;22.42;;;2.10;99.90;;;;;;5112774;28;20090;-63
2021/12/06 08:25:58;;;;;;;42.70;16.17;;;2.10;99.90;;;;;;5110964;28;20366;-65
2021/12/06 08:28:24;;;;;;;43.13;18.30;;;2.10;99.90;;;;;;5113054;28;20153;-63
2021/12/06 08:30:52;;;;;;;53.08;22.10;;;2.10;99.90;;;;;;5112215;28;20473;-64
2021/12/06 08:33:19;;;;;;;45.13;18.55;;;2.20;99.90;;;;;;5111144;28;20048;-65
2021/12/06 08:35:52;;;;;;;50.85;21.70;;;2.10;99.90;;;;;;5112498;28;20131;-63
2021/12/06 08:38:19;;;;;;;41.38;17.08;;;2.20;99.90;;;;;;5111833;28;20047;-64
2021/12/06 08:40:46;;;;;;;46.75;20.67;;;2.20;99.90;;;;;;5111095;28;20074;-63
2021/12/06 08:43:17;;;;;;;43.45;18.92;;;2.20;99.90;;;;;;5112180;28;20059;-64
2021/12/06 08:45:47;;;;;;;41.97;18.67;;;2.20;99.90;;;;;;5094786;28;20040;-69
2021/12/06 08:48:13;;;;;;;49.35;20.58;;;2.20;99.90;;;;;;5111475;28;20048;-63
2021/12/06 08:50:39;;;;;;;53.50;20.88;;;2.20;99.90;;;;;;5112244;28;20059;-64
2021/12/06 08:53:05;;;;;;;48.17;21.10;;;2.20;99.90;;;;;;5111719;28;20104;-64
2021/12/06 08:55:31;;;;;;;40.25;17.45;;;2.30;99.90;;;;;;5111180;28;20048;-64
2021/12/06 08:57:57;;;;;;;51.45;22.30;;;2.20;99.90;;;;;;5110373;28;20150;-64
2021/12/06 09:00:29;;;;;;;45.65;18.70;;;2.30;99.90;;;;;;5111634;28;20132;-64
2021/12/06 09:02:55;;;;;;;46.95;20.45;;;2.30;99.90;;;;;;5111212;28;20197;-64
2021/12/06 09:05:26;;;;;;;45.60;19.27;;;2.30;99.90;;;;;;5077482;28;20054;-67
2021/12/06 09:07:52;;;;;;;49.28;23.20;;;2.30;99.90;;;;;;5112165;28;20040;-65
2021/12/06 09:10:19;;;;;;;46.80;18.90;;;2.30;99.90;;;;;;5128475;27;20491;-64
2021/12/06 09:12:45;;;;;;;52.15;22.00;;;2.30;99.90;;;;;;5110792;28;20051;-68
2021/12/06 09:15:15;;;;;;;48.40;22.80;;;2.30;99.90;;;;;;5111460;28;20039;-65
2021/12/06 09:17:41;;;;;;;56.78;21.95;;;2.40;99.90;;;;;;5111235;28;20392;-65
2021/12/06 09:20:10;;;;;;;36.90;19.58;;;2.50;99.90;;;;;;5111906;28;20048;-65
2021/12/06 09:22:36;;;;;;;35.17;16.98;;;2.70;99.90;;;;;;5112315;28;20048;-64
2021/12/06 09:25:05;;;;;;;34.97;17.10;;;2.70;99.90;;;;;;5124977;27;20044;-66
2021/12/06 09:27:32;;;;;;;36.70;15.80;;;2.80;99.90;;;;;;5109697;28;20054;-65
2021/12/06 09:29:58;;;;;;;43.45;18.95;;;2.80;99.90;;;;;;5110572;28;20231;-64
2021/12/06 09:32:24;;;;;;;41.65;20.45;;;2.80;99.90;;;;;;5091135;28;20083;-66
2021/12/06 09:34:54;;;;;;;41.90;18.38;;;2.70;99.90;;;;;;5109613;28;20129;-66
2021/12/06 09:37:20;;;;;;;31.92;16.10;;;2.70;99.90;;;;;;5109876;28;20044;-71
2021/12/06 09:39:47;;;;;;;36.47;18.33;;;2.70;99.90;;;;;;5109755;28;20127;-72
2021/12/06 09:42:13;;;;;;;41.72;18.05;;;2.60;99.90;;;;;;5092886;28;20500;-67
2021/12/06 09:44:39;;;;;;;42.75;21.17;;;2.60;99.90;;;;;;5110939;28;20039;-65
2021/12/06 09:47:05;;;;;;;43.17;20.17;;;2.60;99.90;;;;;;5126491;28;20538;-65
2021/12/06 09:49:32;;;;;;;39.33;16.90;;;2.60;99.90;;;;;;5075467;28;20051;-64
2021/12/06 09:52:01;;;;;;;26.05;12.10;;;2.70;99.90;;;;;;5109589;28;20040;-64
2021/12/06 09:54:36;;;;;;;45.25;19.52;;;2.70;99.90;;;;;;5110729;28;20384;-66
2021/12/06 09:57:05;;;;;;;42.58;18.73;;;2.70;99.90;;;;;;5110297;28;20050;-65
2021/12/06 09:59:34;;;;;;;45.17;18.05;;;2.70;99.90;;;;;;5110142;28;20058;-66
2021/12/06 10:02:09;;;;;;;40.05;16.50;;;2.70;99.90;;;;;;5110162;28;20250;-65
2021/12/06 10:04:39;;;;;;;38.70;16.48;;;2.70;99.90;;;;;;5115530;28;20089;-65
2021/12/06 10:07:09;;;;;;;36.92;16.30;;;2.70;99.90;;;;;;5114683;28;20058;-68
2021/12/06 10:09:36;;;;;;;38.50;18.40;;;2.70;99.90;;;;;;5116186;28;20054;-66
2021/12/06 10:12:02;;;;;;;37.90;16.13;;;2.70;99.90;;;;;;5114563;28;20047;-67
2021/12/06 10:14:29;;;;;;;29.58;13.93;;;2.70;99.90;;;;;;5116018;28;20088;-66
2021/12/06 10:16:55;;;;;;;35.40;17.35;;;2.70;99.90;;;;;;5115413;28;20434;-67
2021/12/06 10:19:21;;;;;;;38.47;16.95;;;2.80;99.90;;;;;;5114378;28;20044;-65
2021/12/06 10:21:48;;;;;;;31.58;13.52;;;2.70;99.90;;;;;;5115514;28;20048;-67
2021/12/06 10:24:21;;;;;;;31.92;13.52;;;2.70;99.90;;;;;;5114565;28;20139;-66
2021/12/06 10:26:49;;;;;;;36.25;12.75;;;2.70;99.90;;;;;;5114566;28;20055;-66
2021/12/06 10:29:22;;;;;;;33.65;15.20;;;2.70;99.90;;;;;;5114060;28;20042;-66
2021/12/06 10:31:51;;;;;;;30.52;14.40;;;2.70;99.90;;;;;;5114156;28;20400;-67
2021/12/06 10:34:25;;;;;;;30.33;14.05;;;2.70;99.90;;;;;;5113865;28;20105;-66
2021/12/06 10:36:52;;;;;;;33.55;14.88;;;2.70;99.90;;;;;;5114336;28;20392;-72
2021/12/06 10:39:18;;;;;;;31.73;14.10;;;2.70;99.90;;;;;;5113276;28;20101;-65
2021/12/06 10:41:49;;;;;;;32.20;14.82;;;2.70;99.90;;;;;;5114053;28;20071;-66
2021/12/06 10:44:15;;;;;;;30.38;14.80;;;2.80;99.90;;;;;;5113708;28;20287;-65
2021/12/06 10:46:48;;;;;;;33.42;15.65;;;2.70;99.90;;;;;;5114453;28;20130;-68
2021/12/06 10:49:26;;;;;;;30.67;13.50;;;2.70;99.90;;;;;;5113883;28;20047;-65
2021/12/06 10:51:52;;;;;;;26.85;14.20;;;2.70;99.90;;;;;;5131390;27;20044;-65
2021/12/06 10:54:33;;;;;;;29.23;15.38;;;2.80;99.90;;;;;;5097039;28;20127;-66
2021/12/06 10:57:02;;;;;;;30.25;14.45;;;2.70;99.90;;;;;;5115060;28;20044;-66
2021/12/06 10:59:33;;;;;;;27.15;13.35;;;2.70;99.90;;;;;;5113513;28;20066;-66
2021/12/06 11:02:11;;;;;;;26.45;13.52;;;2.70;99.90;;;;;;5113825;28;20204;-65
2021/12/06 11:04:38;;;;;;;21.65;11.10;;;2.70;99.90;;;;;;5114749;28;20430;-66
2021/12/06 11:07:05;;;;;;;29.52;13.60;;;2.70;99.90;;;;;;5113459;28;20096;-65
2021/12/06 11:09:33;;;;;;;31.73;13.98;;;2.70;99.90;;;;;;5114892;28;20043;-68
2021/12/06 11:12:01;;;;;;;27.65;14.25;;;2.70;99.90;;;;;;5096717;28;20481;-77
2021/12/06 11:14:31;;;;;;;32.47;16.00;;;2.80;99.90;;;;;;5112612;28;20138;-68
2021/12/06 11:17:18;;;;;;;28.00;13.05;;;2.80;99.90;;;;;;5114267;28;20048;-65
2021/12/06 11:19:45;;;;;;;29.80;15.80;;;2.80;99.90;;;;;;5113532;28;20187;-65
2021/12/06 11:22:16;;;;;;;29.70;15.20;;;2.90;99.90;;;;;;5114219;28;20181;-63
2021/12/06 11:24:48;;;;;;;32.17;14.85;;;3.00;99.90;;;;;;5113260;28;20054;-64
2021/12/06 11:27:21;;;;;;;26.42;11.75;;;3.00;99.90;;;;;;5129810;27;20067;-66
2021/12/06 11:29:48;;;;;;;25.52;12.52;;;2.90;99.90;;;;;;5112972;28;20051;-67
2021/12/06 11:32:23;;;;;;;26.65;12.43;;;2.90;99.90;;;;;;5129573;27;20039;-69
2021/12/06 11:34:57;;;;;;;32.20;14.73;;;2.90;99.90;;;;;;5113430;28;20366;-65
2021/12/06 11:37:31;;;;;;;33.45;13.68;;;2.90;99.90;;;;;;5113669;27;20048;-71
2021/12/06 11:40:05;;;;;;;31.55;13.15;;;2.80;99.90;;;;;;5112521;28;20077;-65
2021/12/06 11:42:32;;;;;;;;;;;2.90;99.90;;;;;;5114510;28;20047;-64
2021/12/06 11:44:58;;;;;;;31.33;14.93;;;2.90;99.90;;;;;;5114111;28;20268;-65
2021/12/06 11:47:24;;;;;;;31.95;13.60;;;2.90;99.90;;;;;;5112015;28;20044;-64
2021/12/06 11:49:53;;;;;;;40.47;18.70;;;2.90;99.90;;;;;;5112879;28;20053;-66
2021/12/06 11:52:32;;;;;;;38.38;17.75;;;2.90;99.90;;;;;;5112167;28;20050;-66
2021/12/06 11:55:11;;;;;;;41.03;21.27;;;3.00;99.90;;;;;;5113627;28;20087;-64
2021/12/06 11:57:44;;;;;;;38.70;18.58;;;2.90;99.90;;;;;;5112238;28;20100;-64
2021/12/06 12:00:17;;;;;;;47.38;21.70;;;2.90;99.90;;;;;;5113191;28;20075;-67
2021/12/06 12:02:58;;;;;;;38.60;17.77;;;2.90;99.90;;;;;;5112443;28;20417;-63
2021/12/06 12:05:36;;;;;;;35.92;16.90;;;2.90;99.90;;;;;;5111575;28;20052;-65
2021/12/06 12:08:13;;;;;;;36.13;17.95;;;2.90;99.90;;;;;;5113612;28;20051;-66
2021/12/06 12:10:51;;;;;;;32.58;16.95;;;2.90;99.90;;;;;;5112423;28;20079;-66
2021/12/06 12:13:27;;;;;;;33.22;16.17;;;2.90;99.90;;;;;;5111771;28;20051;-64
2021/12/06 12:15:56;;;;;;;27.33;14.45;;;2.90;99.90;;;;;;5112997;28;20040;-62
2021/12/06 12:18:22;;;;;;;30.73;15.82;;;3.00;99.90;;;;;;5094701;28;20039;-66
2021/12/06 12:20:49;;;;;;;31.70;14.75;;;3.00;99.90;;;;;;5113226;28;20040;-64
2021/12/06 12:23:15;;;;;;;33.58;17.55;;;3.10;99.90;;;;;;5111775;28;20054;-64
2021/12/06 12:25:56;;;;;;;28.85;15.07;;;3.10;99.90;;;;;;5111950;28;20048;-64
2021/12/06 12:28:27;;;;;;;22.92;10.65;;;3.10;99.90;;;;;;5112594;28;20077;-63
2021/12/06 12:30:57;;;;;;;26.67;14.20;;;3.30;99.90;;;;;;5111248;28;20142;-64
2021/12/06 12:33:23;;;;;;;25.27;12.52;;;3.10;99.90;;;;;;5112560;28;20061;-65
2021/12/06 12:35:57;;;;;;;28.08;14.82;;;3.10;99.90;;;;;;5112312;28;20086;-62
2021/12/06 12:38:26;;;;;;;24.63;13.15;;;3.10;99.90;;;;;;5105070;28;20040;-63
2021/12/06 12:40:56;;;;;;;22.17;11.35;;;3.10;99.90;;;;;;5111368;28;20062;-64
2021/12/06 12:43:32;;;;;;;25.13;12.77;;;3.10;99.90;;;;;;5111357;28;20039;-64
2021/12/06 12:46:06;;;;;;;23.80;11.20;;;3.10;99.90;;;;;;5112531;28;20044;-64
2021/12/06 12:48:46;;;;;;;24.85;13.45;;;3.10;99.90;;;;;;5111069;28;20050;-64
2021/12/06 12:51:20;;;;;;;22.80;12.25;;;3.20;99.90;;;;;;5111147;28;20052;-70
2021/12/06 12:54:18;;;;;;;20.33;11.27;;;3.20;99.90;;;;;;5112879;28;20071;-64
2021/12/06 12:56:48;;;;;;;29.48;12.95;;;3.10;99.90;;;;;;5111680;28;20116;-64
2021/12/06 12:59:23;;;;;;;21.23;11.10;;;3.20;99.90;;;;;;5110608;28;20135;-69